sensor_id;sensor_type;location;lat;lon;timestamp;temperature;humidity
1447;DHT22;717;51.522;7.266;2023-04-06T00:00:35;11.00;99.90
1447;DHT22;717;51.522;7.266;2023-04-06T00:03:03;11.00;99.90
1447;DHT22;717;51.522;7.266;2023-04-06T00:05:34;10.90;99.90
1447;DHT22;717;51.522;7.266;2023-04-06T00:08:04;10.90;99.90
1447;DHT22;717;51.522;7.266;2023-04-06T00:10:33;10.90;99.90
1447;DHT22;717;51.522;7.266;2023-04-06T00:13:01;10.90;99.90
1447;DHT22;717;51.522;7.266;2023-04-06T00:15:30;10.90;99.90
1447;DHT22;717;51.522;7.266;2023-04-06T00:17:58;10.90;99.90
1447;DHT22;717;51.522;7.266;2023-04-06T00:20:27;10.90;99.90
1447;DHT22;717;51.522;7.266;2023-04-06T00:22:58;10.80;99.90
1447;DHT22;717;51.522;7.266;2023-04-06T00:25:26;10.80;99.90
1447;DHT22;717;51.522;7.266;2023-04-06T00:27:55;10.80;99.90
1447;DHT22;717;51.522;7.266;2023-04-06T00:30:23;10.80;99.90
1447;DHT22;717;51.522;7.266;2023-04-06T00:32:52;10.80;99.90
1447;DHT22;717;51.522;7.266;2023-04-06T00:35:21;10.70;99.90
1447;DHT22;717;51.522;7.266;2023-04-06T00:37:49;10.70;99.90
1447;DHT22;717;51.522;7.266;2023-04-06T00:40:20;10.70;99.90
1447;DHT22;717;51.522;7.266;2023-04-06T00:42:49;10.70;99.90
1447;DHT22;717;51.522;7.266;2023-04-06T00:45:18;10.60;99.90
1447;DHT22;717;51.522;7.266;2023-04-06T00:47:46;10.70;99.90
1447;DHT22;717;51.522;7.266;2023-04-06T00:50:15;10.60;99.90
1447;DHT22;717;51.522;7.266;2023-04-06T00:52:43;10.60;99.90
1447;DHT22;717;51.522;7.266;2023-04-06T00:55:12;10.60;99.90
1447;DHT22;717;51.522;7.266;2023-04-06T00:57:43;10.60;99.90
1447;DHT22;717;51.522;7.266;2023-04-06T01:00:13;10.60;99.90
1447;DHT22;717;51.522;7.266;2023-04-06T01:02:42;10.60;99.90
1447;DHT22;717;51.522;7.266;2023-04-06T01:05:11;10.60;99.90
1447;DHT22;717;51.522;7.266;2023-04-06T01:07:40;10.50;99.90
1447;DHT22;717;51.522;7.266;2023-04-06T01:10:09;10.50;99.90
1447;DHT22;717;51.522;7.266;2023-04-06T01:12:38;10.50;99.90
1447;DHT22;717;51.522;7.266;2023-04-06T01:15:10;10.50;99.90
1447;DHT22;717;51.522;7.266;2023-04-06T01:17:39;10.50;99.90
1447;DHT22;717;51.522;7.266;2023-04-06T01:20:07;10.50;99.90
1447;DHT22;717;51.522;7.266;2023-04-06T01:22:38;10.40;99.90
1447;DHT22;717;51.522;7.266;2023-04-06T01:25:09;10.40;99.90
1447;DHT22;717;51.522;7.266;2023-04-06T01:27:38;10.40;99.90
1447;DHT22;717;51.522;7.266;2023-04-06T01:30:08;10.40;99.90
1447;DHT22;717;51.522;7.266;2023-04-06T01:32:36;10.30;99.90
1447;DHT22;717;51.522;7.266;2023-04-06T01:35:05;10.30;99.90
1447;DHT22;717;51.522;7.266;2023-04-06T01:37:34;10.30;99.90
1447;DHT22;717;51.522;7.266;2023-04-06T01:40:07;10.30;99.90
1447;DHT22;717;51.522;7.266;2023-04-06T01:42:35;10.20;99.90
1447;DHT22;717;51.522;7.266;2023-04-06T01:45:05;10.20;99.90
1447;DHT22;717;51.522;7.266;2023-04-06T01:47:34;10.20;99.90
1447;DHT22;717;51.522;7.266;2023-04-06T01:50:02;10.20;99.90
1447;DHT22;717;51.522;7.266;2023-04-06T01:52:32;10.20;99.90
1447;DHT22;717;51.522;7.266;2023-04-06T01:55:00;10.20;99.90
1447;DHT22;717;51.522;7.266;2023-04-06T01:57:31;10.20;99.90
1447;DHT22;717;51.522;7.266;2023-04-06T02:00:00;10.10;99.90
1447;DHT22;717;51.522;7.266;2023-04-06T02:02:28;10.20;99.90
1447;DHT22;717;51.522;7.266;2023-04-06T02:04:57;10.10;99.90
1447;DHT22;717;51.522;7.266;2023-04-06T02:07:25;10.10;99.90
1447;DHT22;717;51.522;7.266;2023-04-06T02:09:55;10.10;99.90
1447;DHT22;717;51.522;7.266;2023-04-06T02:12:23;10.00;99.90
1447;DHT22;717;51.522;7.266;2023-04-06T02:14:54;10.00;99.90
1447;DHT22;717;51.522;7.266;2023-04-06T02:17:23;10.00;99.90
1447;DHT22;717;51.522;7.266;2023-04-06T02:19:51;9.90;99.90
1447;DHT22;717;51.522;7.266;2023-04-06T02:22:20;9.90;99.90
1447;DHT22;717;51.522;7.266;2023-04-06T02:24:48;9.90;99.90
1447;DHT22;717;51.522;7.266;2023-04-06T02:27:17;9.90;99.90
1447;DHT22;717;51.522;7.266;2023-04-06T02:29:45;9.90;99.90
1447;DHT22;717;51.522;7.266;2023-04-06T02:32:16;9.90;99.90
1447;DHT22;717;51.522;7.266;2023-04-06T02:34:45;9.80;99.90
1447;DHT22;717;51.522;7.266;2023-04-06T02:37:13;9.80;99.90
1447;DHT22;717;51.522;7.266;2023-04-06T02:39:42;9.80;99.90
1447;DHT22;717;51.522;7.266;2023-04-06T02:42:10;9.80;99.90
1447;DHT22;717;51.522;7.266;2023-04-06T02:44:40;9.90;99.90
1447;DHT22;717;51.522;7.266;2023-04-06T02:47:09;9.80;99.90
1447;DHT22;717;51.522;7.266;2023-04-06T02:49:40;9.90;99.90
1447;DHT22;717;51.522;7.266;2023-04-06T02:52:08;9.90;99.90
1447;DHT22;717;51.522;7.266;2023-04-06T02:54:37;9.90;99.90
1447;DHT22;717;51.522;7.266;2023-04-06T02:57:05;9.80;99.90
1447;DHT22;717;51.522;7.266;2023-04-06T02:59:34;9.90;99.90
1447;DHT22;717;51.522;7.266;2023-04-06T03:02:02;9.90;99.90
1447;DHT22;717;51.522;7.266;2023-04-06T03:04:31;9.90;99.90
1447;DHT22;717;51.522;7.266;2023-04-06T03:07:02;9.90;99.90
1447;DHT22;717;51.522;7.266;2023-04-06T03:09:30;9.90;99.90
1447;DHT22;717;51.522;7.266;2023-04-06T03:11:59;9.90;99.90
1447;DHT22;717;51.522;7.266;2023-04-06T03:14:28;9.90;99.90
1447;DHT22;717;51.522;7.266;2023-04-06T03:16:56;9.90;99.90
1447;DHT22;717;51.522;7.266;2023-04-06T03:19:25;9.90;99.90
1447;DHT22;717;51.522;7.266;2023-04-06T03:21:53;9.90;99.90
1447;DHT22;717;51.522;7.266;2023-04-06T03:24:24;9.90;99.90
1447;DHT22;717;51.522;7.266;2023-04-06T03:26:53;9.90;99.90
1447;DHT22;717;51.522;7.266;2023-04-06T03:29:22;9.80;99.90
1447;DHT22;717;51.522;7.266;2023-04-06T03:31:50;9.80;99.90
1447;DHT22;717;51.522;7.266;2023-04-06T03:34:18;9.80;99.90
1447;DHT22;717;51.522;7.266;2023-04-06T03:36:47;9.80;99.90
1447;DHT22;717;51.522;7.266;2023-04-06T03:39:15;9.80;99.90
1447;DHT22;717;51.522;7.266;2023-04-06T03:41:46;9.80;99.90
1447;DHT22;717;51.522;7.266;2023-04-06T03:44:15;9.80;99.90
1447;DHT22;717;51.522;7.266;2023-04-06T03:46:43;9.80;99.90
1447;DHT22;717;51.522;7.266;2023-04-06T03:49:12;9.80;99.90
1447;DHT22;717;51.522;7.266;2023-04-06T03:51:40;9.80;99.90
1447;DHT22;717;51.522;7.266;2023-04-06T03:54:09;9.80;99.90
1447;DHT22;717;51.522;7.266;2023-04-06T03:56:37;9.80;99.90
1447;DHT22;717;51.522;7.266;2023-04-06T03:59:08;9.80;99.90
1447;DHT22;717;51.522;7.266;2023-04-06T04:01:37;9.80;99.90
1447;DHT22;717;51.522;7.266;2023-04-06T04:04:05;9.80;99.90
1447;DHT22;717;51.522;7.266;2023-04-06T04:06:34;9.80;99.90
1447;DHT22;717;51.522;7.266;2023-04-06T04:09:02;9.70;99.90
1447;DHT22;717;51.522;7.266;2023-04-06T04:11:31;9.70;99.90
1447;DHT22;717;51.522;7.266;2023-04-06T04:13:59;9.70;99.90
1447;DHT22;717;51.522;7.266;2023-04-06T04:16:31;9.70;99.90
1447;DHT22;717;51.522;7.266;2023-04-06T04:18:59;9.70;99.90
1447;DHT22;717;51.522;7.266;2023-04-06T04:21:29;9.60;99.90
1447;DHT22;717;51.522;7.266;2023-04-06T04:23:58;9.60;99.90
1447;DHT22;717;51.522;7.266;2023-04-06T04:26:27;9.70;99.90
1447;DHT22;717;51.522;7.266;2023-04-06T04:28:55;9.60;99.90
1447;DHT22;717;51.522;7.266;2023-04-06T04:31:23;9.60;99.90
1447;DHT22;717;51.522;7.266;2023-04-06T04:33:54;9.60;99.90
1447;DHT22;717;51.522;7.266;2023-04-06T04:36:23;9.60;99.90
1447;DHT22;717;51.522;7.266;2023-04-06T04:38:52;9.60;99.90
1447;DHT22;717;51.522;7.266;2023-04-06T04:41:20;9.60;99.90
1447;DHT22;717;51.522;7.266;2023-04-06T04:43:49;9.60;99.90
1447;DHT22;717;51.522;7.266;2023-04-06T04:46:17;9.60;99.90
1447;DHT22;717;51.522;7.266;2023-04-06T04:48:45;9.60;99.90
1447;DHT22;717;51.522;7.266;2023-04-06T04:51:16;9.60;99.90
1447;DHT22;717;51.522;7.266;2023-04-06T04:53:45;9.50;99.90
1447;DHT22;717;51.522;7.266;2023-04-06T04:56:13;9.50;99.90
1447;DHT22;717;51.522;7.266;2023-04-06T04:58:42;9.50;99.90
1447;DHT22;717;51.522;7.266;2023-04-06T05:01:10;9.50;99.90
1447;DHT22;717;51.522;7.266;2023-04-06T05:03:40;9.50;99.90
1447;DHT22;717;51.522;7.266;2023-04-06T05:06:08;9.60;99.90
1447;DHT22;717;51.522;7.266;2023-04-06T05:08:40;9.50;99.90
1447;DHT22;717;51.522;7.266;2023-04-06T05:11:08;9.50;99.90
1447;DHT22;717;51.522;7.266;2023-04-06T05:13:37;9.50;99.90
1447;DHT22;717;51.522;7.266;2023-04-06T05:16:06;9.50;99.90
1447;DHT22;717;51.522;7.266;2023-04-06T05:18:34;9.50;99.90
1447;DHT22;717;51.522;7.266;2023-04-06T05:21:03;9.50;99.90
1447;DHT22;717;51.522;7.266;2023-04-06T05:23:32;9.50;99.90
1447;DHT22;717;51.522;7.266;2023-04-06T05:26:03;9.50;99.90
1447;DHT22;717;51.522;7.266;2023-04-06T05:28:32;9.50;99.90
1447;DHT22;717;51.522;7.266;2023-04-06T05:31:01;9.60;99.90
1447;DHT22;717;51.522;7.266;2023-04-06T05:33:30;9.50;99.90
1447;DHT22;717;51.522;7.266;2023-04-06T05:35:58;9.50;99.90
1447;DHT22;717;51.522;7.266;2023-04-06T05:38:29;9.50;99.90
1447;DHT22;717;51.522;7.266;2023-04-06T05:40:58;9.50;99.90
1447;DHT22;717;51.522;7.266;2023-04-06T05:43:29;9.40;99.90
1447;DHT22;717;51.522;7.266;2023-04-06T05:45:58;9.30;99.90
1447;DHT22;717;51.522;7.266;2023-04-06T05:48:27;9.30;99.90
1447;DHT22;717;51.522;7.266;2023-04-06T05:50:55;9.30;99.90
1447;DHT22;717;51.522;7.266;2023-04-06T05:53:24;9.40;99.90
1447;DHT22;717;51.522;7.266;2023-04-06T05:55:54;9.40;99.90
1447;DHT22;717;51.522;7.266;2023-04-06T05:58:23;9.30;99.90
1447;DHT22;717;51.522;7.266;2023-04-06T06:00:58;9.30;99.90
1447;DHT22;717;51.522;7.266;2023-04-06T06:03:28;9.40;99.90
1447;DHT22;717;51.522;7.266;2023-04-06T06:05:59;9.30;99.90
1447;DHT22;717;51.522;7.266;2023-04-06T06:08:29;9.30;99.90
1447;DHT22;717;51.522;7.266;2023-04-06T06:10:57;9.30;99.90
1447;DHT22;717;51.522;7.266;2023-04-06T06:13:26;9.40;99.90
1447;DHT22;717;51.522;7.266;2023-04-06T06:15:54;9.30;99.90
1447;DHT22;717;51.522;7.266;2023-04-06T06:18:25;9.30;99.90
1447;DHT22;717;51.522;7.266;2023-04-06T06:20:54;9.20;99.90
1447;DHT22;717;51.522;7.266;2023-04-06T06:23:22;9.20;99.90
1447;DHT22;717;51.522;7.266;2023-04-06T06:25:51;9.20;99.90
1447;DHT22;717;51.522;7.266;2023-04-06T06:28:23;9.10;99.90
1447;DHT22;717;51.522;7.266;2023-04-06T06:30:52;9.10;99.90
1447;DHT22;717;51.522;7.266;2023-04-06T06:33:21;9.10;99.90
1447;DHT22;717;51.522;7.266;2023-04-06T06:35:52;9.10;99.90
1447;DHT22;717;51.522;7.266;2023-04-06T06:38:21;9.10;99.90
1447;DHT22;717;51.522;7.266;2023-04-06T06:40:49;9.10;99.90
1447;DHT22;717;51.522;7.266;2023-04-06T06:43:18;9.10;99.90
1447;DHT22;717;51.522;7.266;2023-04-06T06:45:46;9.10;99.90
1447;DHT22;717;51.522;7.266;2023-04-06T06:48:15;9.10;99.90
1447;DHT22;717;51.522;7.266;2023-04-06T06:50:43;9.20;99.90
1447;DHT22;717;51.522;7.266;2023-04-06T06:53:14;9.20;99.90
1447;DHT22;717;51.522;7.266;2023-04-06T06:55:43;9.30;99.90
1447;DHT22;717;51.522;7.266;2023-04-06T06:58:14;9.30;99.90
1447;DHT22;717;51.522;7.266;2023-04-06T07:00:43;9.40;99.90
1447;DHT22;717;51.522;7.266;2023-04-06T07:03:11;9.40;99.90
1447;DHT22;717;51.522;7.266;2023-04-06T07:05:45;9.40;99.90
1447;DHT22;717;51.522;7.266;2023-04-06T07:08:21;9.30;99.90
1447;DHT22;717;51.522;7.266;2023-04-06T07:10:51;9.40;99.90
1447;DHT22;717;51.522;7.266;2023-04-06T07:13:21;9.40;99.90
1447;DHT22;717;51.522;7.266;2023-04-06T07:15:52;9.40;99.90
1447;DHT22;717;51.522;7.266;2023-04-06T07:18:21;9.50;99.90
1447;DHT22;717;51.522;7.266;2023-04-06T07:20:50;9.50;99.90
1447;DHT22;717;51.522;7.266;2023-04-06T07:23:21;9.50;99.90
1447;DHT22;717;51.522;7.266;2023-04-06T07:25:50;9.60;99.90
1447;DHT22;717;51.522;7.266;2023-04-06T07:28:20;9.70;99.90
1447;DHT22;717;51.522;7.266;2023-04-06T07:30:48;9.60;99.90
1447;DHT22;717;51.522;7.266;2023-04-06T07:33:17;9.70;99.90
1447;DHT22;717;51.522;7.266;2023-04-06T07:35:45;9.70;99.90
1447;DHT22;717;51.522;7.266;2023-04-06T07:38:14;9.80;99.90
1447;DHT22;717;51.522;7.266;2023-04-06T07:40:45;9.80;99.90
1447;DHT22;717;51.522;7.266;2023-04-06T07:43:14;9.90;99.90
1447;DHT22;717;51.522;7.266;2023-04-06T07:45:42;9.90;99.90
1447;DHT22;717;51.522;7.266;2023-04-06T07:48:11;10.00;99.90
1447;DHT22;717;51.522;7.266;2023-04-06T07:50:39;10.00;99.90
1447;DHT22;717;51.522;7.266;2023-04-06T07:53:08;10.10;99.90
1447;DHT22;717;51.522;7.266;2023-04-06T07:55:37;10.10;99.90
1447;DHT22;717;51.522;7.266;2023-04-06T07:58:08;10.20;99.90
1447;DHT22;717;51.522;7.266;2023-04-06T08:00:36;10.20;99.90
1447;DHT22;717;51.522;7.266;2023-04-06T08:03:05;10.30;99.90
1447;DHT22;717;51.522;7.266;2023-04-06T08:05:34;10.40;99.90
1447;DHT22;717;51.522;7.266;2023-04-06T08:08:02;10.50;99.90
1447;DHT22;717;51.522;7.266;2023-04-06T08:10:31;10.50;99.90
1447;DHT22;717;51.522;7.266;2023-04-06T08:13:00;10.60;99.90
1447;DHT22;717;51.522;7.266;2023-04-06T08:15:31;10.70;99.90
1447;DHT22;717;51.522;7.266;2023-04-06T08:17:59;10.80;99.90
1447;DHT22;717;51.522;7.266;2023-04-06T08:20:28;10.80;99.90
1447;DHT22;717;51.522;7.266;2023-04-06T08:22:56;10.90;99.90
1447;DHT22;717;51.522;7.266;2023-04-06T08:25:25;10.90;99.90
1447;DHT22;717;51.522;7.266;2023-04-06T08:27:54;11.00;99.90
1447;DHT22;717;51.522;7.266;2023-04-06T08:30:22;11.10;99.90
1447;DHT22;717;51.522;7.266;2023-04-06T08:32:53;11.20;99.90
1447;DHT22;717;51.522;7.266;2023-04-06T08:35:22;11.30;99.90
1447;DHT22;717;51.522;7.266;2023-04-06T08:37:50;11.30;99.90
1447;DHT22;717;51.522;7.266;2023-04-06T08:40:19;11.40;99.90
1447;DHT22;717;51.522;7.266;2023-04-06T08:42:52;11.50;99.90
1447;DHT22;717;51.522;7.266;2023-04-06T08:45:22;11.60;99.90
1447;DHT22;717;51.522;7.266;2023-04-06T08:47:54;11.70;99.90
1447;DHT22;717;51.522;7.266;2023-04-06T08:50:28;11.80;99.90
1447;DHT22;717;51.522;7.266;2023-04-06T08:52:57;11.80;99.90
1447;DHT22;717;51.522;7.266;2023-04-06T08:55:27;12.00;99.90
1447;DHT22;717;51.522;7.266;2023-04-06T08:57:56;12.10;99.90
1447;DHT22;717;51.522;7.266;2023-04-06T09:00:26;12.20;99.90
1447;DHT22;717;51.522;7.266;2023-04-06T09:02:58;12.30;99.90
1447;DHT22;717;51.522;7.266;2023-04-06T09:05:27;12.40;99.90
1447;DHT22;717;51.522;7.266;2023-04-06T09:07:56;12.50;99.90
1447;DHT22;717;51.522;7.266;2023-04-06T09:10:25;12.60;99.90
1447;DHT22;717;51.522;7.266;2023-04-06T09:13:03;12.70;99.90
1447;DHT22;717;51.522;7.266;2023-04-06T09:15:31;12.80;99.90
1447;DHT22;717;51.522;7.266;2023-04-06T09:18:03;12.90;99.90
1447;DHT22;717;51.522;7.266;2023-04-06T09:20:31;13.00;99.90
1447;DHT22;717;51.522;7.266;2023-04-06T09:23:00;13.10;99.90
1447;DHT22;717;51.522;7.266;2023-04-06T09:25:28;13.10;99.90
1447;DHT22;717;51.522;7.266;2023-04-06T09:28:02;13.20;99.90
1447;DHT22;717;51.522;7.266;2023-04-06T09:30:32;13.30;99.90
1447;DHT22;717;51.522;7.266;2023-04-06T09:33:04;13.30;99.90
1447;DHT22;717;51.522;7.266;2023-04-06T09:35:32;13.40;99.90
1447;DHT22;717;51.522;7.266;2023-04-06T09:38:10;13.40;99.90
1447;DHT22;717;51.522;7.266;2023-04-06T09:40:48;13.50;99.90
1447;DHT22;717;51.522;7.266;2023-04-06T09:43:24;13.50;99.90
1447;DHT22;717;51.522;7.266;2023-04-06T09:45:53;13.50;99.90
1447;DHT22;717;51.522;7.266;2023-04-06T09:48:24;13.60;99.90
1447;DHT22;717;51.522;7.266;2023-04-06T09:50:56;13.60;99.90
1447;DHT22;717;51.522;7.266;2023-04-06T09:53:27;13.70;99.90
1447;DHT22;717;51.522;7.266;2023-04-06T09:55:58;13.70;99.90
1447;DHT22;717;51.522;7.266;2023-04-06T09:58:34;13.80;99.90
1447;DHT22;717;51.522;7.266;2023-04-06T10:01:07;13.90;99.90
1447;DHT22;717;51.522;7.266;2023-04-06T10:03:45;14.10;99.90
1447;DHT22;717;51.522;7.266;2023-04-06T10:06:21;14.20;99.90
1447;DHT22;717;51.522;7.266;2023-04-06T10:08:52;14.30;99.90
1447;DHT22;717;51.522;7.266;2023-04-06T10:11:21;14.40;99.90
1447;DHT22;717;51.522;7.266;2023-04-06T10:13:50;14.40;99.90
1447;DHT22;717;51.522;7.266;2023-04-06T10:16:19;14.50;99.90
1447;DHT22;717;51.522;7.266;2023-04-06T10:18:54;14.50;99.90
1447;DHT22;717;51.522;7.266;2023-04-06T10:21:25;14.50;99.90
1447;DHT22;717;51.522;7.266;2023-04-06T10:23:59;14.60;99.90
1447;DHT22;717;51.522;7.266;2023-04-06T10:26:28;14.70;99.90
1447;DHT22;717;51.522;7.266;2023-04-06T10:29:03;14.80;99.90
1447;DHT22;717;51.522;7.266;2023-04-06T10:31:32;14.90;99.90
1447;DHT22;717;51.522;7.266;2023-04-06T10:34:03;14.90;99.90
1447;DHT22;717;51.522;7.266;2023-04-06T10:36:32;15.00;99.90
1447;DHT22;717;51.522;7.266;2023-04-06T10:39:04;15.10;99.90
1447;DHT22;717;51.522;7.266;2023-04-06T10:41:34;15.20;99.90
1447;DHT22;717;51.522;7.266;2023-04-06T10:44:03;15.30;99.90
1447;DHT22;717;51.522;7.266;2023-04-06T10:46:33;15.40;99.90
1447;DHT22;717;51.522;7.266;2023-04-06T10:49:12;15.40;99.90
1447;DHT22;717;51.522;7.266;2023-04-06T10:51:41;15.40;99.90
1447;DHT22;717;51.522;7.266;2023-04-06T10:54:11;15.50;99.90
1447;DHT22;717;51.522;7.266;2023-04-06T10:56:40;15.50;99.90
1447;DHT22;717;51.522;7.266;2023-04-06T10:59:08;15.50;99.90
1447;DHT22;717;51.522;7.266;2023-04-06T11:01:37;15.60;99.90
1447;DHT22;717;51.522;7.266;2023-04-06T11:04:05;15.70;99.90
1447;DHT22;717;51.522;7.266;2023-04-06T11:06:41;15.70;99.90
1447;DHT22;717;51.522;7.266;2023-04-06T11:09:09;15.80;99.90
1447;DHT22;717;51.522;7.266;2023-04-06T11:11:39;15.80;99.90
1447;DHT22;717;51.522;7.266;2023-04-06T11:14:09;15.90;99.90
1447;DHT22;717;51.522;7.266;2023-04-06T11:16:38;16.00;99.90
1447;DHT22;717;51.522;7.266;2023-04-06T11:19:07;16.10;99.90
1447;DHT22;717;51.522;7.266;2023-04-06T11:21:36;16.10;99.90
1447;DHT22;717;51.522;7.266;2023-04-06T11:24:12;16.10;99.90
1447;DHT22;717;51.522;7.266;2023-04-06T11:26:43;16.20;99.90
1447;DHT22;717;51.522;7.266;2023-04-06T11:29:15;16.30;99.90
1447;DHT22;717;51.522;7.266;2023-04-06T11:31:46;16.40;99.90
1447;DHT22;717;51.522;7.266;2023-04-06T11:34:18;16.40;99.90
1447;DHT22;717;51.522;7.266;2023-04-06T11:36:48;16.40;99.90
1447;DHT22;717;51.522;7.266;2023-04-06T11:39:21;16.50;99.90
1447;DHT22;717;51.522;7.266;2023-04-06T11:41:53;16.50;99.90
1447;DHT22;717;51.522;7.266;2023-04-06T11:44:31;16.60;99.90
1447;DHT22;717;51.522;7.266;2023-04-06T11:47:00;16.70;99.90
1447;DHT22;717;51.522;7.266;2023-04-06T11:49:30;16.70;99.90
1447;DHT22;717;51.522;7.266;2023-04-06T11:52:00;16.80;99.90
1447;DHT22;717;51.522;7.266;2023-04-06T11:54:37;16.80;99.90
1447;DHT22;717;51.522;7.266;2023-04-06T11:57:08;16.80;99.90
1447;DHT22;717;51.522;7.266;2023-04-06T11:59:36;16.80;99.90
1447;DHT22;717;51.522;7.266;2023-04-06T12:02:05;16.80;99.90
1447;DHT22;717;51.522;7.266;2023-04-06T12:04:34;16.80;99.90
1447;DHT22;717;51.522;7.266;2023-04-06T12:07:03;16.80;99.90
1447;DHT22;717;51.522;7.266;2023-04-06T12:09:34;16.80;99.90
1447;DHT22;717;51.522;7.266;2023-04-06T12:12:04;16.90;99.90
1447;DHT22;717;51.522;7.266;2023-04-06T12:14:32;16.80;99.90
1447;DHT22;717;51.522;7.266;2023-04-06T12:17:01;16.80;99.90
1447;DHT22;717;51.522;7.266;2023-04-06T12:19:29;16.80;99.90
1447;DHT22;717;51.522;7.266;2023-04-06T12:21:58;16.80;99.90
1447;DHT22;717;51.522;7.266;2023-04-06T12:24:27;16.80;99.90
1447;DHT22;717;51.522;7.266;2023-04-06T12:26:58;16.90;99.90
1447;DHT22;717;51.522;7.266;2023-04-06T12:29:27;16.90;99.90
1447;DHT22;717;51.522;7.266;2023-04-06T12:31:55;17.00;99.90
1447;DHT22;717;51.522;7.266;2023-04-06T12:34:25;17.10;99.90
1447;DHT22;717;51.522;7.266;2023-04-06T12:36:54;17.10;99.90
1447;DHT22;717;51.522;7.266;2023-04-06T12:39:22;17.10;99.90
1447;DHT22;717;51.522;7.266;2023-04-06T12:41:52;17.00;99.90
1447;DHT22;717;51.522;7.266;2023-04-06T12:44:24;17.00;99.90
1447;DHT22;717;51.522;7.266;2023-04-06T12:46:52;17.00;99.90
1447;DHT22;717;51.522;7.266;2023-04-06T12:49:21;16.90;99.90
1447;DHT22;717;51.522;7.266;2023-04-06T12:51:50;16.90;99.90
1447;DHT22;717;51.522;7.266;2023-04-06T12:54:18;17.00;99.90
1447;DHT22;717;51.522;7.266;2023-04-06T12:56:47;17.00;99.90
1447;DHT22;717;51.522;7.266;2023-04-06T12:59:15;17.10;99.90
1447;DHT22;717;51.522;7.266;2023-04-06T13:01:48;17.20;99.90
1447;DHT22;717;51.522;7.266;2023-04-06T13:04:18;17.20;99.90
1447;DHT22;717;51.522;7.266;2023-04-06T13:06:46;17.20;99.90
1447;DHT22;717;51.522;7.266;2023-04-06T13:09:15;17.20;99.90
1447;DHT22;717;51.522;7.266;2023-04-06T13:11:43;17.30;99.90
1447;DHT22;717;51.522;7.266;2023-04-06T13:14:12;17.30;99.90
1447;DHT22;717;51.522;7.266;2023-04-06T13:16:40;17.20;99.90
1447;DHT22;717;51.522;7.266;2023-04-06T13:19:11;17.20;99.90
1447;DHT22;717;51.522;7.266;2023-04-06T13:21:40;17.20;99.90
1447;DHT22;717;51.522;7.266;2023-04-06T13:24:09;17.20;99.90
1447;DHT22;717;51.522;7.266;2023-04-06T13:26:37;17.10;99.90
1447;DHT22;717;51.522;7.266;2023-04-06T13:29:06;17.00;99.90
1447;DHT22;717;51.522;7.266;2023-04-06T13:31:35;17.00;99.90
1447;DHT22;717;51.522;7.266;2023-04-06T13:34:04;17.00;99.90
1447;DHT22;717;51.522;7.266;2023-04-06T13:36:35;17.00;99.90
1447;DHT22;717;51.522;7.266;2023-04-06T13:39:06;16.90;99.90
1447;DHT22;717;51.522;7.266;2023-04-06T13:41:35;16.90;99.90
1447;DHT22;717;51.522;7.266;2023-04-06T13:44:03;16.80;99.90
1447;DHT22;717;51.522;7.266;2023-04-06T13:46:32;16.80;99.90
1447;DHT22;717;51.522;7.266;2023-04-06T13:49:01;16.80;99.90
1447;DHT22;717;51.522;7.266;2023-04-06T13:51:30;16.70;99.90
1447;DHT22;717;51.522;7.266;2023-04-06T13:54:01;16.70;99.90
1447;DHT22;717;51.522;7.266;2023-04-06T13:56:30;16.60;99.90
1447;DHT22;717;51.522;7.266;2023-04-06T13:58:58;16.50;99.90
1447;DHT22;717;51.522;7.266;2023-04-06T14:01:27;16.40;99.90
1447;DHT22;717;51.522;7.266;2023-04-06T14:03:55;16.30;99.90
1447;DHT22;717;51.522;7.266;2023-04-06T14:06:24;16.30;99.90
1447;DHT22;717;51.522;7.266;2023-04-06T14:08:53;16.20;99.90
1447;DHT22;717;51.522;7.266;2023-04-06T14:11:25;16.20;99.90
1447;DHT22;717;51.522;7.266;2023-04-06T14:13:53;16.20;99.90
1447;DHT22;717;51.522;7.266;2023-04-06T14:16:23;16.20;99.90
1447;DHT22;717;51.522;7.266;2023-04-06T14:18:52;16.20;99.90
1447;DHT22;717;51.522;7.266;2023-04-06T14:21:23;16.20;99.90
1447;DHT22;717;51.522;7.266;2023-04-06T14:23:52;16.20;99.90
1447;DHT22;717;51.522;7.266;2023-04-06T14:26:20;16.20;99.90
1447;DHT22;717;51.522;7.266;2023-04-06T14:28:52;16.10;99.90
1447;DHT22;717;51.522;7.266;2023-04-06T14:31:21;16.10;99.90
1447;DHT22;717;51.522;7.266;2023-04-06T14:33:49;16.00;99.90
1447;DHT22;717;51.522;7.266;2023-04-06T14:36:18;15.90;99.90
1447;DHT22;717;51.522;7.266;2023-04-06T14:38:46;16.00;99.90
1447;DHT22;717;51.522;7.266;2023-04-06T14:41:15;16.00;99.90
1447;DHT22;717;51.522;7.266;2023-04-06T14:43:46;15.80;99.90
1447;DHT22;717;51.522;7.266;2023-04-06T14:46:17;15.70;99.90
1447;DHT22;717;51.522;7.266;2023-04-06T14:48:47;15.70;99.90
1447;DHT22;717;51.522;7.266;2023-04-06T14:51:16;15.60;99.90
1447;DHT22;717;51.522;7.266;2023-04-06T14:53:45;15.60;99.90
1447;DHT22;717;51.522;7.266;2023-04-06T14:56:19;15.60;99.90
1447;DHT22;717;51.522;7.266;2023-04-06T14:58:48;15.50;99.90
1447;DHT22;717;51.522;7.266;2023-04-06T15:01:20;15.40;99.90
1447;DHT22;717;51.522;7.266;2023-04-06T15:03:48;15.50;99.90
1447;DHT22;717;51.522;7.266;2023-04-06T15:06:17;15.50;99.90
1447;DHT22;717;51.522;7.266;2023-04-06T15:08:47;15.60;99.90
1447;DHT22;717;51.522;7.266;2023-04-06T15:11:16;15.50;99.90
1447;DHT22;717;51.522;7.266;2023-04-06T15:13:45;15.40;99.90
1447;DHT22;717;51.522;7.266;2023-04-06T15:16:14;15.30;99.90
1447;DHT22;717;51.522;7.266;2023-04-06T15:18:45;15.30;99.90
1447;DHT22;717;51.522;7.266;2023-04-06T15:21:13;15.30;99.90
1447;DHT22;717;51.522;7.266;2023-04-06T15:23:43;15.30;99.90
1447;DHT22;717;51.522;7.266;2023-04-06T15:26:11;15.30;99.90
1447;DHT22;717;51.522;7.266;2023-04-06T15:28:40;15.30;99.90
1447;DHT22;717;51.522;7.266;2023-04-06T15:31:15;15.20;99.90
1447;DHT22;717;51.522;7.266;2023-04-06T15:33:48;15.10;99.90
1447;DHT22;717;51.522;7.266;2023-04-06T15:36:23;15.10;99.90
1447;DHT22;717;51.522;7.266;2023-04-06T15:38:54;15.10;99.90
1447;DHT22;717;51.522;7.266;2023-04-06T15:41:23;15.10;99.90
1447;DHT22;717;51.522;7.266;2023-04-06T15:43:53;15.10;99.90
1447;DHT22;717;51.522;7.266;2023-04-06T15:46:22;15.10;99.90
1447;DHT22;717;51.522;7.266;2023-04-06T15:48:54;15.00;99.90
1447;DHT22;717;51.522;7.266;2023-04-06T15:51:23;15.00;99.90
1447;DHT22;717;51.522;7.266;2023-04-06T15:53:52;14.90;99.90
1447;DHT22;717;51.522;7.266;2023-04-06T15:56:21;14.80;99.90
1447;DHT22;717;51.522;7.266;2023-04-06T15:58:50;14.70;99.90
1447;DHT22;717;51.522;7.266;2023-04-06T16:01:18;14.60;99.90
1447;DHT22;717;51.522;7.266;2023-04-06T16:03:47;14.60;99.90
1447;DHT22;717;51.522;7.266;2023-04-06T16:06:18;14.60;99.90
1447;DHT22;717;51.522;7.266;2023-04-06T16:08:47;14.60;99.90
1447;DHT22;717;51.522;7.266;2023-04-06T16:11:15;14.70;99.90
1447;DHT22;717;51.522;7.266;2023-04-06T16:13:44;14.70;99.90
1447;DHT22;717;51.522;7.266;2023-04-06T16:16:12;14.60;99.90
1447;DHT22;717;51.522;7.266;2023-04-06T16:18:41;14.60;99.90
1447;DHT22;717;51.522;7.266;2023-04-06T16:21:13;14.60;99.90
1447;DHT22;717;51.522;7.266;2023-04-06T16:23:45;14.50;99.90
1447;DHT22;717;51.522;7.266;2023-04-06T16:26:15;14.50;99.90
1447;DHT22;717;51.522;7.266;2023-04-06T16:28:46;14.40;99.90
1447;DHT22;717;51.522;7.266;2023-04-06T16:31:17;14.30;99.90
1447;DHT22;717;51.522;7.266;2023-04-06T16:33:46;14.10;99.90
1447;DHT22;717;51.522;7.266;2023-04-06T16:36:21;14.10;99.90
1447;DHT22;717;51.522;7.266;2023-04-06T16:38:52;13.90;99.90